Time;durP1;ratioP1;P1;durP2;ratioP2;P2;SDS_P1;SDS_P2;PMS_P1;PMS_P2;Temp;Humidity;BMP_temperature;BMP_pressure;BME280_temperature;BME280_humidity;BME280_pressure;Samples;Min_cycle;Max_cycle;Signal;HPM_P1;HPM_P2
2022/10/31 00:02:19;;;;;;;;;8.67;8.33;;;;;17.15;65.77;101557.75;4977867;28;45336;-74
2022/10/31 00:04:45;;;;;;;;;9.67;7.33;;;;;16.68;65.45;101504.66;4978526;28;45480;-75
2022/10/31 00:07:10;;;;;;;;;10.33;9.33;;;;;16.68;65.97;101485.03;4978263;28;45537;-74
2022/10/31 00:09:35;;;;;;;;;10.33;8.33;;;;;16.30;65.87;101430.06;5002157;28;45486;-73
2022/10/31 00:12:01;;;;;;;;;10.67;9.00;;;;;16.84;66.11;101529.88;4998219;28;45495;-73
2022/10/31 00:14:26;;;;;;;;;8.33;8.33;;;;;16.90;65.80;101545.31;4998196;28;45444;-73
2022/10/31 00:16:51;;;;;;;;;25.00;20.67;;;;;17.06;66.19;101571.38;5009568;28;48070;-74
2022/10/31 00:19:17;;;;;;;;;9.67;8.67;;;;;16.60;66.31;101487.66;4978052;28;45317;-77
2022/10/31 00:21:42;;;;;;;;;11.67;10.67;;;;;16.49;66.12;101482.63;4977971;28;45389;-75
2022/10/31 00:24:07;;;;;;;;;14.33;11.67;;;;;16.59;66.27;101494.88;4978326;28;45564;-74
2022/10/31 00:26:33;;;;;;;;;9.33;8.67;;;;;16.89;66.90;101540.94;4986104;28;45556;-75
2022/10/31 00:28:59;;;;;;;;;9.00;9.00;;;;;16.97;66.65;101552.53;4998523;28;45428;-73
2022/10/31 00:31:25;;;;;;;;;9.67;9.67;;;;;16.98;66.70;101558.75;4992324;28;45516;-73
2022/10/31 00:33:50;;;;;;;;;13.67;10.67;;;;;16.79;66.68;101530.34;4979659;28;45326;-75
2022/10/31 00:36:18;;;;;;;;;8.33;8.33;;;;;16.94;66.77;101560.94;4978300;28;45564;-74
2022/10/31 00:38:44;;;;;;;;;10.00;8.67;;;;;16.44;66.81;101493.84;4977968;28;45227;-73
2022/10/31 00:41:11;;;;;;;;;10.67;10.67;;;;;16.80;67.02;101552.66;4977871;28;45348;-74
2022/10/31 00:43:36;;;;;;;;;9.33;9.33;;;;;16.65;66.98;101531.81;4987200;28;45443;-74
2022/10/31 00:46:01;;;;;;;;;8.67;8.67;;;;;16.75;66.96;101544.28;4991465;28;45692;-74
2022/10/31 00:48:27;;;;;;;;;12.33;11.33;;;;;16.76;67.25;101545.97;4978163;28;45447;-75
2022/10/31 00:50:52;;;;;;;;;9.67;9.67;;;;;16.73;67.22;101541.75;4978900;28;45326;-76
2022/10/31 00:53:18;;;;;;;;;9.67;8.33;;;;;16.82;67.09;101551.53;4977916;28;45357;-74
2022/10/31 00:55:43;;;;;;;;;8.67;8.67;;;;;16.88;67.49;101555.38;4992366;28;46553;-74
2022/10/31 00:58:09;;;;;;;;;9.00;9.00;;;;;16.74;67.31;101535.38;4977311;28;45659;-75
2022/10/31 01:00:34;;;;;;;;;9.00;9.00;;;;;16.64;67.55;101518.56;4976516;28;45511;-76
2022/10/31 01:02:59;;;;;;;;;10.00;9.33;;;;;16.81;67.33;101530.19;4977227;28;50367;-73
2022/10/31 01:05:25;;;;;;;;;9.33;9.33;;;;;16.91;67.49;101550.53;4977319;28;46641;-74
2022/10/31 01:07:50;;;;;;;;;9.33;9.33;;;;;16.82;67.23;101532.72;4977387;28;45547;-73
2022/10/31 01:10:17;;;;;;;;;8.33;8.33;;;;;16.69;66.95;101506.34;4977579;28;45256;-75
2022/10/31 01:12:45;;;;;;;;;9.33;8.33;;;;;16.83;67.27;101530.88;4978753;28;45388;-73
2022/10/31 01:15:13;;;;;;;;;14.67;11.67;;;;;16.84;67.30;101522.66;4976161;28;47458;-74
2022/10/31 01:17:39;;;;;;;;;15.33;10.67;;;;;16.84;67.08;101511.91;4975032;28;46621;-75
2022/10/31 01:20:06;;;;;;;;;9.00;9.00;;;;;16.21;67.24;101401.53;4992602;28;45283;-73
2022/10/31 01:22:32;;;;;;;;;10.33;10.33;;;;;16.95;67.05;101516.09;4976217;28;45563;-75
2022/10/31 01:24:58;;;;;;;;;10.00;8.33;;;;;16.83;67.07;101504.03;4976930;28;45987;-74
2022/10/31 01:27:23;;;;;;;;;8.00;8.00;;;;;16.93;67.14;101518.97;4976763;28;45326;-73
2022/10/31 01:29:48;;;;;;;;;10.00;10.00;;;;;16.72;67.47;101475.63;4991374;28;45513;-73
2022/10/31 01:32:14;;;;;;;;;9.33;8.67;;;;;16.94;67.34;101509.91;4976903;28;48355;-73
2022/10/31 01:34:39;;;;;;;;;12.67;11.00;;;;;16.70;67.53;101472.28;4984572;28;47084;-73
2022/10/31 01:37:04;;;;;;;;;9.33;9.00;;;;;16.98;67.17;101518.44;4996393;28;45183;-74
2022/10/31 01:39:30;;;;;;;;;10.33;8.67;;;;;16.91;67.24;101501.34;5000139;28;45430;-75
2022/10/31 01:41:55;;;;;;;;;8.67;8.67;;;;;17.00;67.09;101494.94;5000001;28;51281;-73
2022/10/31 01:44:20;;;;;;;;;11.33;11.33;;;;;17.06;67.28;101504.22;4987261;28;45866;-72
2022/10/31 01:47:16;;;;;;;;;9.33;7.00;;;;;17.07;66.93;101495.97;4980328;28;45351;-74
2022/10/31 01:49:57;;;;;;;;;9.67;9.67;;;;;17.08;66.91;101496.81;4982091;28;45623;-74
2022/10/31 01:52:52;;;;;;;;;13.33;9.33;;;;;17.10;66.99;101484.88;4995588;28;45290;-73
2022/10/31 01:55:26;;;;;;;;;9.00;9.00;;;;;16.64;66.65;101409.31;5006303;28;46148;-74
2022/10/31 01:57:55;;;;;;;;;10.33;9.33;;;;;17.07;66.45;101495.97;4989654;28;45420;-74
2022/10/31 02:00:21;;;;;;;;;8.00;7.67;;;;;17.12;66.96;101490.94;4978602;28;45358;-74
2022/10/31 02:02:49;;;;;;;;;8.67;7.33;;;;;16.81;66.73;101442.41;4980482;28;45394;-73
2022/10/31 02:05:22;;;;;;;;;8.67;7.67;;;;;17.08;66.61;101491.44;4980092;28;45408;-73
2022/10/31 02:07:51;;;;;;;;;8.67;8.67;;;;;17.14;66.76;101496.97;4982443;28;45384;-74
2022/10/31 02:10:16;;;;;;;;;9.33;8.33;;;;;15.81;67.03;101272.56;5000249;28;45307;-74
2022/10/31 02:12:43;;;;;;;;;8.33;8.33;;;;;16.75;66.89;101418.06;4992861;28;45332;-74
2022/10/31 02:15:09;;;;;;;;;9.67;9.67;;;;;16.13;66.63;101309.31;4979703;28;46254;-74
2022/10/31 02:17:34;;;;;;;;;13.00;9.00;;;;;17.04;66.83;101450.66;4979851;28;45322;-76
2022/10/31 02:20:20;;;;;;;;;11.00;9.00;;;;;17.17;67.06;101469.75;4979608;28;45257;-74
2022/10/31 02:23:39;;;;;;;;;7.67;7.67;;;;;16.49;66.92;101351.94;4979638;28;45387;-74
2022/10/31 02:26:22;;;;;;;;;10.33;9.67;;;;;17.21;67.29;101457.66;4979139;28;46703;-72
2022/10/31 02:29:18;;;;;;;;;12.67;11.00;;;;;17.20;67.39;101458.66;4979526;28;45293;-73
2022/10/31 02:32:02;;;;;;;;;8.33;8.33;;;;;17.22;67.29;101456.69;4979797;28;45564;-73
2022/10/31 02:34:53;;;;;;;;;15.00;11.00;;;;;16.48;67.38;101339.53;4979687;28;45519;-74
2022/10/31 02:37:43;;;;;;;;;11.33;9.67;;;;;17.20;67.22;101458.66;4994352;28;48204;-74
2022/10/31 02:40:25;;;;;;;;;12.67;10.33;;;;;17.01;67.08;101426.78;4977743;28;46005;-75
2022/10/31 02:43:10;;;;;;;;;10.33;9.33;;;;;17.02;67.04;101420.44;4978816;28;45553;-74
2022/10/31 02:45:41;;;;;;;;;11.67;10.00;;;;;17.08;67.17;101421.59;4994169;28;45459;-76
2022/10/31 02:48:18;;;;;;;;;12.33;10.67;;;;;16.67;67.11;101360.69;4979018;28;45909;-76
2022/10/31 02:50:53;;;;;;;;;11.33;10.67;;;;;17.22;67.08;101437.88;4979299;28;45476;-73
2022/10/31 02:53:19;;;;;;;;;9.67;9.67;;;;;17.16;67.05;101425.09;4979971;28;45278;-74
2022/10/31 02:55:50;;;;;;;;;9.33;9.33;;;;;17.26;67.04;101438.34;4978452;28;47954;-73
2022/10/31 02:58:22;;;;;;;;;15.00;11.33;;;;;17.26;67.06;101441.88;4979385;28;47035;-73
2022/10/31 03:01:03;;;;;;;;;15.00;12.33;;;;;17.20;66.94;101434.47;4997427;28;45253;-73
2022/10/31 03:03:51;;;;;;;;;12.67;12.00;;;;;17.12;66.81;101413.00;4998853;28;45562;-74
2022/10/31 03:06:30;;;;;;;;;11.33;10.33;;;;;17.26;67.02;101436.50;4989452;28;45671;-73
2022/10/31 03:09:09;;;;;;;;;11.67;11.67;;;;;17.14;67.09;101440.53;4977448;28;46863;-72
2022/10/31 03:11:57;;;;;;;;;10.33;8.33;;;;;16.84;66.99;101361.53;4977517;28;45250;-73
2022/10/31 03:14:36;;;;;;;;;13.33;13.33;;;;;17.23;67.23;101428.78;4977742;28;45703;-73
2022/10/31 03:17:07;;;;;;;;;17.67;15.33;;;;;16.79;67.46;101357.66;4988864;28;45562;-76
2022/10/31 03:19:45;;;;;;;;;15.67;15.67;;;;;17.08;67.55;101409.00;4993027;28;46756;-76
2022/10/31 03:22:19;;;;;;;;;14.00;14.00;;;;;17.12;67.82;101428.28;4972728;28;46251;-74
2022/10/31 03:24:47;;;;;;;;;16.00;14.33;;;;;16.69;67.95;101357.84;4958024;28;45497;-74
2022/10/31 03:27:18;;;;;;;;;15.33;14.00;;;;;17.00;67.81;101425.94;4959890;28;45457;-74
2022/10/31 03:29:44;;;;;;;;;16.33;13.67;;;;;14.45;68.09;101001.56;4973724;28;45644;-73
2022/10/31 03:32:19;;;;;;;;;15.00;15.00;;;;;16.99;68.44;101418.88;4958101;28;45279;-76
2022/10/31 03:34:47;;;;;;;;;11.67;10.33;;;;;16.80;68.55;101394.22;4987098;28;45556;-72
2022/10/31 03:37:17;;;;;;;;;16.67;16.67;;;;;16.63;68.64;101359.31;4976231;28;45529;-74
2022/10/31 03:39:45;;;;;;;;;22.33;19.00;;;;;16.84;68.70;101385.69;4977006;28;45431;-74
2022/10/31 03:42:17;;;;;;;;;16.00;14.67;;;;;17.01;68.95;101418.72;4977069;28;45392;-74
2022/10/31 03:44:48;;;;;;;;;18.00;16.33;;;;;16.63;68.21;101337.84;4975736;28;45287;-75
2022/10/31 03:47:14;;;;;;;;;19.67;17.33;;;;;16.99;68.73;101410.00;4977269;28;45284;-73
2022/10/31 03:49:39;;;;;;;;;21.00;18.33;;;;;16.08;68.81;101271.44;4974803;28;46537;-73
2022/10/31 03:52:42;;;;;;;;;17.67;16.67;;;;;16.88;69.14;101402.31;4975319;28;45199;-74
2022/10/31 03:55:21;;;;;;;;;17.33;15.67;;;;;16.15;69.33;101289.53;4976909;28;45266;-72
2022/10/31 03:58:02;;;;;;;;;18.67;16.67;;;;;16.79;69.65;101396.06;4991902;28;45464;-75
2022/10/31 04:00:31;;;;;;;;;21.00;20.00;;;;;15.05;69.68;101113.81;4975945;28;46180;-73
2022/10/31 04:03:03;;;;;;;;;19.00;16.67;;;;;16.70;70.16;101389.88;4977154;28;46579;-73
2022/10/31 04:05:30;;;;;;;;;19.67;18.67;;;;;16.60;70.17;101365.00;4955908;28;45390;-74
2022/10/31 04:07:58;;;;;;;;;21.25;20.25;;;;;16.62;69.92;101368.38;4929395;28;1195901;-73
2022/10/31 04:10:26;;;;;;;;;20.00;20.00;;;;;16.69;70.03;101396.25;4978168;28;46776;-75
2022/10/31 04:13:01;;;;;;;;;16.67;15.33;;;;;16.52;69.93;101362.34;4976555;28;45470;-76
2022/10/31 04:15:28;;;;;;;;;19.00;16.67;;;;;16.71;69.97;101382.66;4978094;28;45407;-74
2022/10/31 04:17:57;;;;;;;;;12.67;12.67;;;;;16.65;70.19;101384.16;4976572;28;45476;-75
2022/10/31 04:20:31;;;;;;;;;18.33;16.33;;;;;15.96;70.08;101259.34;4977507;28;46449;-74
2022/10/31 04:22:56;;;;;;;;;16.33;16.33;;;;;16.10;70.05;101277.47;4976340;28;46177;-73
2022/10/31 04:25:22;;;;;;;;;14.33;13.00;;;;;16.64;69.94;101366.38;4978205;28;45719;-72
2022/10/31 04:27:47;;;;;;;;;16.33;15.00;;;;;16.60;69.70;101354.25;4977711;28;45375;-72
2022/10/31 04:30:13;;;;;;;;;19.67;19.00;;;;;16.82;69.96;101378.78;4977286;28;53282;-76
2022/10/31 04:32:38;;;;;;;;;20.33;17.67;;;;;16.74;69.49;101371.59;4976882;28;45413;-74
2022/10/31 04:35:03;;;;;;;;;16.67;16.67;;;;;16.75;69.58;101357.16;4977965;28;45389;-75
2022/10/31 04:37:29;;;;;;;;;17.67;16.00;;;;;16.83;69.69;101377.81;4978372;28;45319;-73
2022/10/31 04:39:54;;;;;;;;;19.33;16.67;;;;;16.59;69.41;101333.81;4978401;28;46758;-74
2022/10/31 04:42:19;;;;;;;;;14.33;14.00;;;;;16.81;69.27;101382.47;4993197;28;45406;-75
2022/10/31 04:44:45;;;;;;;;;18.00;17.67;;;;;16.84;69.68;101366.91;4997077;28;45336;-72
2022/10/31 04:47:10;;;;;;;;;20.67;16.67;;;;;16.89;69.19;101363.69;4983728;28;45523;-75
2022/10/31 04:49:36;;;;;;;;;15.00;15.00;;;;;16.53;69.25;101304.94;4977236;28;45508;-73
2022/10/31 04:52:01;;;;;;;;;22.67;17.67;;;;;16.84;69.27;101360.69;4977208;28;45317;-74
2022/10/31 04:54:26;;;;;;;;;20.67;18.33;;;;;16.83;69.02;101353.63;4991860;28;57351;-73
2022/10/31 04:56:52;;;;;;;;;18.33;15.33;;;;;16.38;68.81;101290.53;4977454;28;45546;-73
2022/10/31 04:59:17;;;;;;;;;15.00;13.33;;;;;16.73;68.93;101337.69;4977681;28;48212;-74
2022/10/31 05:01:42;;;;;;;;;16.67;16.33;;;;;16.75;69.14;101335.66;4990529;28;45228;-74
2022/10/31 05:04:08;;;;;;;;;20.33;15.00;;;;;16.41;69.04;101276.78;4977393;28;45370;-73
2022/10/31 05:06:33;;;;;;;;;17.00;16.33;;;;;16.72;69.39;101326.13;4992710;28;45353;-75
2022/10/31 05:08:58;;;;;;;;;15.33;12.67;;;;;16.68;69.11;101334.69;4976955;28;45326;-75
2022/10/31 05:11:23;;;;;;;;;12.33;12.33;;;;;16.65;69.14;101326.94;4975707;28;45311;-73
2022/10/31 05:13:49;;;;;;;;;13.33;13.00;;;;;16.55;69.14;101315.53;4980182;28;45390;-73
2022/10/31 05:16:14;;;;;;;;;14.33;14.00;;;;;16.26;69.42;101282.00;4979667;28;45310;-74
2022/10/31 05:18:40;;;;;;;;;14.67;13.67;;;;;16.48;69.58;101301.94;4980665;28;45459;-75
2022/10/31 05:21:05;;;;;;;;;19.00;14.00;;;;;16.54;69.58;101312.00;4995305;28;45563;-73
2022/10/31 05:23:30;;;;;;;;;12.33;11.33;;;;;16.59;69.69;101311.47;4981309;28;45271;-72
2022/10/31 05:25:55;;;;;;;;;14.67;14.00;;;;;16.27;69.84;101245.28;4996212;28;45471;-74
2022/10/31 05:28:21;;;;;;;;;15.33;15.33;;;;;16.52;69.35;101289.03;4979822;28;59469;-75
2022/10/31 05:30:47;;;;;;;;;16.00;14.33;;;;;16.44;69.15;101260.34;4978925;28;45584;-74
2022/10/31 05:33:12;;;;;;;;;15.67;13.00;;;;;16.49;69.22;101282.16;4994040;28;45428;-74
2022/10/31 05:35:38;;;;;;;;;14.00;12.67;;;;;16.56;69.45;101288.50;5000244;28;45513;-74
2022/10/31 05:38:03;;;;;;;;;15.33;13.67;;;;;16.63;69.20;101294.06;4999447;28;46170;-73
2022/10/31 05:40:28;;;;;;;;;16.00;13.00;;;;;15.85;69.44;101192.66;4998367;28;46279;-73
2022/10/31 05:42:56;;;;;;;;;11.67;11.67;;;;;16.59;69.92;101309.63;4999998;28;45305;-73
2022/10/31 05:45:22;;;;;;;;;15.67;14.67;;;;;16.04;69.61;101218.28;4981054;28;45425;-73
2022/10/31 05:48:00;;;;;;;;;13.67;12.00;;;;;16.56;70.04;101315.34;4979688;28;46552;-73
2022/10/31 05:50:27;;;;;;;;;12.67;11.67;;;;;16.54;69.93;101303.09;4995558;28;45424;-74
2022/10/31 05:53:04;;;;;;;;;13.33;11.33;;;;;16.35;69.86;101272.09;4999694;28;45354;-73
2022/10/31 05:55:30;;;;;;;;;9.67;9.67;;;;;16.43;69.70;101278.31;4999854;28;45582;-74
2022/10/31 05:57:56;;;;;;;;;11.67;9.33;;;;;16.36;69.59;101298.75;4998242;28;46229;-73
2022/10/31 06:00:24;;;;;;;;;13.00;13.00;;;;;16.22;70.08;101252.97;4979905;28;45197;-76
2022/10/31 06:02:49;;;;;;;;;11.33;11.33;;;;;15.78;69.82;101179.06;4979890;28;45393;-73
2022/10/31 06:05:16;;;;;;;;;14.33;14.00;;;;;16.33;70.07;101266.88;4981851;28;45545;-74
2022/10/31 06:07:42;;;;;;;;;14.00;13.67;;;;;16.41;69.67;101290.19;4997372;28;46216;-77
2022/10/31 06:10:08;;;;;;;;;16.67;13.00;;;;;16.53;69.71;101282.66;4999351;28;45486;-75
2022/10/31 06:12:37;;;;;;;;;14.00;11.00;;;;;16.49;69.38;101279.47;4992157;28;45563;-76
2022/10/31 06:15:07;;;;;;;;;15.67;13.00;;;;;15.99;69.64;101199.16;4980692;28;45242;-75
2022/10/31 06:17:36;;;;;;;;;12.67;12.33;;;;;16.50;69.44;101256.97;4979767;28;45764;-74
2022/10/31 06:20:01;;;;;;;;;13.33;11.33;;;;;16.32;69.26;101226.81;4994760;28;46569;-74
2022/10/31 06:22:27;;;;;;;;;10.33;10.33;;;;;16.49;69.25;101239.22;4979137;28;45228;-73
2022/10/31 06:24:53;;;;;;;;;11.67;10.67;;;;;16.39;69.37;101233.16;4998522;28;45877;-73
2022/10/31 06:27:18;;;;;;;;;14.00;11.67;;;;;16.48;69.36;101242.06;4999104;28;46744;-74
2022/10/31 06:29:45;;;;;;;;;11.33;11.00;;;;;15.91;69.06;101141.03;4998034;28;45653;-73
2022/10/31 06:32:11;;;;;;;;;9.67;9.67;;;;;16.60;68.95;101273.72;4999562;28;45417;-75
2022/10/31 06:34:37;;;;;;;;;9.00;7.00;;;;;16.42;68.81;101235.53;4999390;28;45560;-76
2022/10/31 06:37:02;;;;;;;;;12.00;10.00;;;;;16.64;68.59;101275.09;4985917;28;45422;-73
2022/10/31 06:39:28;;;;;;;;;11.00;9.67;;;;;16.54;68.53;101255.63;4994371;28;45422;-74
2022/10/31 06:41:53;;;;;;;;;11.00;10.33;;;;;16.57;68.35;101252.59;4998214;28;45615;-76
2022/10/31 06:44:18;;;;;;;;;12.33;12.33;;;;;16.65;68.73;101266.03;4998989;28;45552;-76
2022/10/31 06:46:46;;;;;;;;;12.67;11.33;;;;;16.24;68.94;101194.66;4998673;28;45730;-74
2022/10/31 06:49:12;;;;;;;;;10.00;10.00;;;;;15.79;68.86;101137.00;4998510;28;45208;-72
2022/10/31 06:51:37;;;;;;;;;11.00;9.67;;;;;16.50;69.13;101254.31;4987387;28;45191;-74
2022/10/31 06:54:03;;;;;;;;;9.67;9.67;;;;;16.31;69.16;101214.41;4992579;28;45620;-75
2022/10/31 06:56:28;;;;;;;;;11.00;11.00;;;;;16.58;68.77;101265.00;4978860;28;48115;-75
2022/10/31 06:58:53;;;;;;;;;13.67;10.33;;;;;16.61;68.88;101271.88;4996899;28;45288;-74
2022/10/31 07:01:18;;;;;;;;;14.67;11.00;;;;;16.61;68.63;101253.94;4998821;28;45177;-74
2022/10/31 07:03:44;;;;;;;;;18.33;14.00;;;;;16.47;69.81;101251.97;4998989;28;45307;-75
2022/10/31 07:06:09;;;;;;;;;11.00;10.67;;;;;15.25;69.43;101066.97;4981695;28;46605;-74
2022/10/31 07:08:34;;;;;;;;;9.00;9.00;;;;;16.34;69.69;101230.16;4994578;28;46058;-76
2022/10/31 07:11:00;;;;;;;;;9.33;8.00;;;;;16.42;69.99;101248.97;4980703;28;45317;-76
2022/10/31 07:13:25;;;;;;;;;8.67;7.67;;;;;16.45;69.99;101250.47;4995528;28;45499;-74
2022/10/31 07:15:53;;;;;;;;;15.00;12.33;;;;;16.49;69.88;101249.09;4981492;28;45732;-74
2022/10/31 07:18:19;;;;;;;;;11.67;10.33;;;;;16.48;69.70;101244.75;4969474;28;45321;-75
2022/10/31 07:20:44;;;;;;;;;12.33;12.33;;;;;16.07;69.87;101170.50;4975753;28;45334;-74
2022/10/31 07:23:10;;;;;;;;;11.00;8.33;;;;;15.94;69.88;101154.09;4996175;28;45473;-72
2022/10/31 07:25:37;;;;;;;;;10.00;9.00;;;;;16.34;69.92;101212.22;4978893;28;45495;-73
2022/10/31 07:28:02;;;;;;;;;14.00;12.00;;;;;16.36;69.88;101209.38;4977924;28;45260;-74
2022/10/31 07:30:28;;;;;;;;;13.67;12.33;;;;;16.58;69.55;101242.69;4978850;28;45449;-77
2022/10/31 07:32:53;;;;;;;;;10.00;10.00;;;;;16.49;70.08;101233.84;4977876;28;45675;-74
2022/10/31 07:35:24;;;;;;;;;14.67;11.33;;;;;16.50;69.67;101224.78;4977415;28;45900;-74
2022/10/31 07:37:50;;;;;;;;;17.67;12.00;;;;;16.69;69.72;101239.69;4978393;28;45429;-72
2022/10/31 07:40:16;;;;;;;;;11.33;11.33;;;;;16.75;69.61;101248.91;4978848;28;45543;-76
2022/10/31 07:42:44;;;;;;;;;14.00;11.00;;;;;16.77;69.38;101236.97;4975194;28;45236;-75
2022/10/31 07:45:12;;;;;;;;;12.33;11.33;;;;;16.54;69.37;101204.63;4976832;28;45453;-75
2022/10/31 07:47:50;;;;;;;;;11.67;11.33;;;;;16.27;69.81;101178.19;4992330;28;45480;-76
2022/10/31 07:50:18;;;;;;;;;13.00;12.50;;;;;16.80;69.15;101239.31;4976587;28;45424;-75
2022/10/31 07:52:44;;;;;;;;;17.00;14.67;;;;;16.55;69.38;101189.38;4980051;28;45505;-76
2022/10/31 07:55:10;;;;;;;;;13.00;12.33;;;;;16.67;69.48;101222.94;4980187;28;46381;-75
2022/10/31 07:57:36;;;;;;;;;10.67;10.33;;;;;15.84;69.87;101093.63;4977875;28;45992;-74
2022/10/31 08:00:07;;;;;;;;;16.00;14.00;;;;;16.42;70.02;101188.06;4978721;28;45402;-77
2022/10/31 08:02:32;;;;;;;;;16.00;14.00;;;;;16.69;69.98;101218.22;4978956;28;45271;-75
2022/10/31 08:04:59;;;;;;;;;13.33;12.33;;;;;16.55;69.74;101186.69;4993022;28;48429;-72
2022/10/31 08:07:25;;;;;;;;;16.67;14.67;;;;;16.64;69.41;101197.22;4992965;28;45565;-71
2022/10/31 08:09:50;;;;;;;;;17.33;15.33;;;;;16.90;69.53;101236.44;4987043;28;45299;-72
2022/10/31 08:12:15;;;;;;;;;16.00;14.00;;;;;16.88;69.45;101223.19;4978450;28;45550;-71
2022/10/31 08:14:40;;;;;;;;;18.00;16.33;;;;;16.59;69.42;101163.84;4976803;28;45464;-70
2022/10/31 08:17:06;;;;;;;;;20.00;15.67;;;;;16.83;69.18;101203.25;4990287;28;59238;-69
2022/10/31 08:19:31;;;;;;;;;18.67;16.00;;;;;16.81;69.29;101216.00;4977180;28;45505;-71
2022/10/31 08:21:58;;;;;;;;;19.33;18.67;;;;;16.95;69.46;101236.75;4976737;28;48801;-72
2022/10/31 08:24:23;;;;;;;;;20.33;17.67;;;;;16.91;69.30;101222.00;4976211;28;45743;-72
2022/10/31 08:26:49;;;;;;;;;19.00;18.67;;;;;16.94;69.58;101232.41;4978266;28;45634;-72
2022/10/31 08:29:14;;;;;;;;;23.00;20.00;;;;;16.48;69.50;101130.19;4977278;28;45499;-72
2022/10/31 08:31:40;;;;;;;;;21.00;17.67;;;;;16.98;69.45;101214.91;4992371;28;45595;-72
2022/10/31 08:34:06;;;;;;;;;21.67;20.67;;;;;16.93;69.71;101201.19;4977122;28;45427;-73
2022/10/31 08:36:31;;;;;;;;;21.33;19.33;;;;;16.81;69.44;101162.28;4990864;28;45523;-71
2022/10/31 08:38:57;;;;;;;;;21.67;20.00;;;;;16.45;69.35;101102.84;4977113;28;45556;-74
2022/10/31 08:41:22;;;;;;;;;20.00;19.33;;;;;16.97;69.28;101172.94;4991449;28;46376;-75
2022/10/31 08:43:47;;;;;;;;;23.67;21.67;;;;;16.92;69.54;101159.22;4977101;28;45872;-72
2022/10/31 08:46:13;;;;;;;;;25.00;20.00;;;;;17.03;69.51;101177.66;4977116;28;45472;-72
2022/10/31 08:48:38;;;;;;;;;19.67;18.67;;;;;16.57;69.41;101080.81;4977078;28;45642;-70
2022/10/31 08:51:04;;;;;;;;;24.67;22.33;;;;;17.18;69.10;101185.78;4992095;28;45437;-72
2022/10/31 08:53:29;;;;;;;;;25.00;23.33;;;;;17.19;68.84;101171.31;4975531;28;46939;-72
2022/10/31 08:55:56;;;;;;;;;23.33;23.00;;;;;16.92;68.83;101138.56;4975646;28;45229;-73
2022/10/31 08:58:22;;;;;;;;;22.67;20.00;;;;;17.29;68.91;101178.16;4990991;28;45520;-71
2022/10/31 09:00:49;;;;;;;;;22.67;22.67;;;;;17.09;68.67;101128.56;4976547;28;45316;-73
2022/10/31 09:03:17;;;;;;;;;26.33;21.00;;;;;16.65;68.55;101045.06;4976449;28;45556;-75
2022/10/31 09:05:43;;;;;;;;;25.00;21.00;;;;;16.73;68.62;101059.28;4974341;28;45745;-73
2022/10/31 09:08:09;;;;;;;;;25.67;23.67;;;;;17.36;68.51;101145.19;4976406;28;45396;-73
2022/10/31 09:10:36;;;;;;;;;26.67;22.00;;;;;17.26;68.73;101119.41;4991335;28;45488;-71
2022/10/31 09:13:06;;;;;;;;;19.33;18.00;;;;;17.33;68.46;101122.22;4975824;28;45790;-72
2022/10/31 09:15:32;;;;;;;;;25.67;22.67;;;;;17.38;68.52;101110.91;4977509;28;45411;-71
2022/10/31 09:17:57;;;;;;;;;19.67;18.67;;;;;17.44;68.22;101110.22;4992579;28;45494;-72
2022/10/31 09:20:22;;;;;;;;;20.67;18.00;;;;;17.49;68.27;101116.72;4977467;28;45660;-72
2022/10/31 09:22:54;;;;;;;;;25.00;20.00;;;;;17.14;68.07;101021.41;4978187;28;46043;-77
2022/10/31 09:25:20;;;;;;;;;27.33;25.33;;;;;17.47;68.14;101061.47;4980720;28;45314;-77
2022/10/31 09:27:45;;;;;;;;;23.67;23.00;;;;;17.66;67.88;101074.41;4978305;28;45560;-77
2022/10/31 09:30:11;;;;;;;;;24.00;21.33;;;;;17.75;66.99;101062.56;4978667;28;45280;-76
2022/10/31 09:32:36;;;;;;;;;20.67;20.00;;;;;17.64;66.61;101009.22;4977433;28;45819;-79
2022/10/31 09:35:02;;;;;;;;;23.67;19.33;;;;;17.95;66.08;101027.91;4975844;28;45322;-74
2022/10/31 09:37:27;;;;;;;;;22.67;19.67;;;;;17.82;65.39;100971.22;4975866;28;45290;-77
2022/10/31 09:39:52;;;;;;;;;30.00;26.00;;;;;18.71;64.60;101098.50;4976599;28;45158;-75
2022/10/31 09:42:20;;;;;;;;;24.00;20.67;;;;;18.85;64.24;101094.97;4978252;28;46067;-79
2022/10/31 09:45:17;;;;;;;;;18.67;18.00;;;;;19.01;63.97;101088.50;4991985;28;46263;-78
2022/10/31 09:48:12;;;;;;;;;28.00;25.33;;;;;19.10;63.32;101073.88;4963623;28;45280;-77
2022/10/31 09:50:58;;;;;;;;;27.00;22.67;;;;;19.11;63.78;101056.69;4975703;28;45451;-76
2022/10/31 09:53:34;;;;;;;;;27.00;23.33;;;;;18.97;63.24;101053.00;4975222;28;45457;-76
2022/10/31 09:56:00;;;;;;;;;28.00;23.67;;;;;18.79;63.25;101029.19;4973622;28;46071;-76
2022/10/31 09:58:28;;;;;;;;;16.67;14.67;;;;;18.73;63.29;101023.75;4990815;28;45404;-76
2022/10/31 10:00:58;;;;;;;;;25.67;22.33;;;;;18.25;63.38;100948.00;4978888;28;45581;-75
2022/10/31 10:03:38;;;;;;;;;25.00;21.00;;;;;18.83;63.56;101057.44;4980112;28;46748;-77
2022/10/31 10:06:16;;;;;;;;;19.67;19.00;;;;;18.66;63.20;101041.69;4994966;28;45491;-79
2022/10/31 10:08:41;;;;;;;;;26.00;22.00;;;;;17.88;63.64;100909.47;4994440;28;45538;-76
2022/10/31 10:11:31;;;;;;;;;29.00;25.33;;;;;18.64;63.48;101019.50;4994725;28;45429;-77
2022/10/31 10:13:56;;;;;;;;;18.67;18.67;;;;;18.05;63.59;100925.41;4978712;28;45612;-77
2022/10/31 10:16:50;;;;;;;;;23.67;21.33;;;;;17.96;63.74;100913.91;4978847;28;46214;-78
2022/10/31 10:19:27;;;;;;;;;21.67;20.67;;;;;18.71;63.43;101025.78;4979209;28;45330;-77
2022/10/31 10:22:16;;;;;;;;;22.00;19.33;;;;;18.70;63.94;101010.66;4980489;28;45721;-79
2022/10/31 10:24:51;;;;;;;;;25.00;23.33;;;;;18.72;63.93;101009.44;4978199;28;47947;-77
2022/10/31 10:27:47;;;;;;;;;24.67;21.00;;;;;18.66;63.64;100994.06;4979634;28;45282;-78
2022/10/31 10:30:35;;;;;;;;;24.00;21.33;;;;;18.31;63.55;100930.25;4979906;28;45339;-77
2022/10/31 10:33:11;;;;;;;;;25.00;22.67;;;;;18.47;63.19;100922.78;4981229;28;45330;-77
2022/10/31 10:35:40;;;;;;;;;21.33;21.33;;;;;17.74;62.81;100775.84;4995023;28;48188;-79
2022/10/31 10:38:29;;;;;;;;;19.67;18.67;;;;;19.20;62.24;100992.69;4979987;28;45343;-78
2022/10/31 10:40:55;;;;;;;;;20.67;19.67;;;;;19.22;62.03;100972.63;4978167;28;45633;-78
2022/10/31 10:43:29;;;;;;;;;23.33;20.33;;;;;18.65;61.78;100854.22;4978530;28;45583;-78
2022/10/31 10:49:17;;;;;;;;;24.00;22.67;;;;;18.99;60.89;100856.97;4979455;28;45475;-76
2022/10/31 10:52:19;;;;;;;;;24.00;21.67;;;;;19.62;60.70;100933.31;4994808;28;45322;-77
2022/10/31 10:55:02;;;;;;;;;19.00;15.67;;;;;19.82;60.28;100933.41;4980130;28;45228;-76
2022/10/31 10:57:55;;;;;;;;;19.33;15.67;;;;;19.71;60.33;100924.03;4980071;28;46501;-76
2022/10/31 11:00:29;;;;;;;;;18.33;18.33;;;;;19.22;60.22;100827.06;4959618;28;45314;-76
2022/10/31 11:02:55;;;;;;;;;25.67;25.33;;;;;19.50;60.33;100864.75;4959185;28;45584;-78
2022/10/31 11:05:42;;;;;;;;;19.33;15.33;;;;;19.75;60.52;100906.41;4959082;28;45577;-77
2022/10/31 11:08:07;;;;;;;;;17.33;14.33;;;;;19.08;60.59;100815.38;4977637;28;46411;-79
2022/10/31 11:10:34;;;;;;;;;17.33;17.33;;;;;18.99;60.77;100770.72;4980131;28;45480;-79
2022/10/31 11:13:04;;;;;;;;;20.00;20.00;;;;;19.42;60.16;100849.59;4980457;28;45275;-77
2022/10/31 11:15:36;;;;;;;;;25.67;19.33;;;;;19.73;60.41;100900.38;4980347;28;45503;-77
2022/10/31 11:18:02;;;;;;;;;18.33;17.33;;;;;19.51;60.05;100852.09;4979096;28;45940;-78
2022/10/31 11:20:35;;;;;;;;;19.67;19.67;;;;;19.03;59.82;100779.28;4980889;28;45393;-78
2022/10/31 11:23:16;;;;;;;;;19.00;17.67;;;;;19.79;59.94;100911.41;4998359;28;45312;-78
2022/10/31 11:25:58;;;;;;;;;28.00;21.00;;;;;19.80;59.93;100913.06;4980964;28;45541;-76
2022/10/31 11:28:25;;;;;;;;;17.67;15.67;;;;;19.67;59.37;100868.81;4980056;28;45852;-78